createdAt,value
2018-07-04T00:00:54.231Z,0
2018-07-04T00:01:55.595Z,0
2018-07-04T00:02:56.955Z,0
2018-07-04T00:03:58.315Z,0
2018-07-04T00:04:59.677Z,0
2018-07-04T00:06:01.038Z,0
2018-07-04T00:07:02.400Z,0
2018-07-04T00:08:03.765Z,0
2018-07-04T00:09:05.124Z,0
2018-07-04T00:10:06.481Z,0
2018-07-04T00:11:07.860Z,0
2018-07-04T00:12:09.221Z,0
2018-07-04T00:13:10.589Z,0
2018-07-04T00:14:11.939Z,0
2018-07-04T00:15:13.305Z,0
2018-07-04T00:16:14.664Z,0
2018-07-04T00:17:16.036Z,0
2018-07-04T00:18:17.399Z,0
2018-07-04T00:19:18.759Z,0
2018-07-04T00:20:20.120Z,0
2018-07-04T00:21:21.485Z,0
2018-07-04T00:22:22.850Z,0
2018-07-04T00:23:24.215Z,0
2018-07-04T00:24:25.589Z,0
2018-07-04T00:25:26.944Z,0
2018-07-04T00:26:28.310Z,0
2018-07-04T00:27:29.667Z,0
2018-07-04T00:28:31.030Z,0
2018-07-04T00:29:32.396Z,0
2018-07-04T00:30:33.760Z,0
2018-07-04T00:31:35.129Z,0
2018-07-04T00:32:36.489Z,0
2018-07-04T00:33:37.855Z,0
2018-07-04T00:34:39.222Z,0
2018-07-04T00:35:40.571Z,0
2018-07-04T00:36:41.941Z,0
2018-07-04T00:37:43.296Z,0
2018-07-04T00:38:44.667Z,0
2018-07-04T00:39:46.036Z,0
2018-07-04T00:40:47.389Z,0
2018-07-04T00:41:48.755Z,0
2018-07-04T00:42:50.119Z,0
2018-07-04T00:43:51.489Z,0
2018-07-04T00:44:52.861Z,0
2018-07-04T00:45:54.232Z,0
2018-07-04T00:46:55.600Z,0
2018-07-04T00:47:56.971Z,0
2018-07-04T00:48:58.331Z,0
2018-07-04T00:49:59.701Z,0
2018-07-04T00:51:01.062Z,0
2018-07-04T00:52:02.421Z,0
2018-07-04T00:53:03.782Z,0
2018-07-04T00:54:05.146Z,0
2018-07-04T00:55:06.507Z,0
2018-07-04T00:56:07.862Z,0
2018-07-04T00:57:09.218Z,0
2018-07-04T00:58:10.575Z,0
2018-07-04T00:59:11.934Z,0
2018-07-04T01:00:13.308Z,0
2018-07-04T01:01:14.670Z,0
2018-07-04T01:02:16.035Z,0
2018-07-04T01:03:17.397Z,0
2018-07-04T01:04:18.752Z,0
2018-07-04T01:05:20.114Z,0
2018-07-04T01:06:21.475Z,0
2018-07-04T01:07:22.838Z,0
2018-07-04T01:08:24.194Z,0
2018-07-04T01:09:25.572Z,0
2018-07-04T01:10:26.919Z,0
2018-07-04T01:11:28.281Z,0
2018-07-04T01:12:29.644Z,0
2018-07-04T01:13:31.005Z,0
2018-07-04T01:14:32.374Z,0
2018-07-04T01:15:33.739Z,0
2018-07-04T01:16:35.099Z,0
2018-07-04T01:17:36.463Z,0
2018-07-04T01:18:37.821Z,0
2018-07-04T01:19:39.195Z,0
2018-07-04T01:20:40.559Z,0
2018-07-04T01:21:41.920Z,0
2018-07-04T01:22:43.324Z,0
2018-07-04T01:23:44.655Z,0
2018-07-04T01:24:46.022Z,0
2018-07-04T01:25:47.389Z,0
2018-07-04T01:26:48.750Z,0
2018-07-04T01:27:50.109Z,0
2018-07-04T01:28:51.476Z,0
2018-07-04T01:29:52.841Z,0
2018-07-04T01:30:54.204Z,0
2018-07-04T01:31:55.570Z,0
2018-07-04T01:32:56.928Z,0
2018-07-04T01:33:58.292Z,0
2018-07-04T01:34:59.672Z,0
2018-07-04T01:36:01.050Z,0
2018-07-04T01:37:02.414Z,0
2018-07-04T01:38:03.770Z,0
2018-07-04T01:39:05.126Z,0
2018-07-04T01:40:06.490Z,0
2018-07-04T01:41:07.857Z,0
2018-07-04T01:42:09.225Z,0
2018-07-04T01:43:10.596Z,0
2018-07-04T01:44:11.960Z,0
2018-07-04T01:45:13.314Z,0
2018-07-04T01:46:14.680Z,0
2018-07-04T01:47:16.049Z,0
2018-07-04T01:48:17.416Z,0
2018-07-04T01:49:18.779Z,0
2018-07-04T01:50:20.137Z,0
2018-07-04T01:51:21.501Z,0
2018-07-04T01:52:22.860Z,0
2018-07-04T01:53:24.234Z,0
2018-07-04T01:54:25.594Z,0
2018-07-04T01:55:26.956Z,0
2018-07-04T01:56:28.331Z,0
2018-07-04T01:57:29.681Z,0
2018-07-04T01:58:31.052Z,0
2018-07-04T01:59:32.409Z,0
2018-07-04T02:00:33.776Z,0
2018-07-04T02:01:35.130Z,0
2018-07-04T02:02:37.362Z,0
2018-07-04T02:03:38.724Z,0
2018-07-04T02:04:40.090Z,0
2018-07-04T02:05:41.460Z,0
2018-07-04T02:06:42.808Z,0
2018-07-04T02:07:44.208Z,0
2018-07-04T02:08:45.574Z,0
2018-07-04T02:09:46.925Z,0
2018-07-04T02:10:50.269Z,0
2018-07-04T02:11:51.631Z,0
2018-07-04T02:12:52.998Z,0
2018-07-04T02:13:54.350Z,0
2018-07-04T02:14:55.710Z,0
2018-07-04T02:15:57.062Z,0
2018-07-04T02:16:58.427Z,0
2018-07-04T02:17:59.791Z,0
2018-07-04T02:19:01.152Z,0
2018-07-04T02:20:02.516Z,0
2018-07-04T02:21:03.954Z,0
2018-07-04T02:22:05.319Z,0
2018-07-04T02:23:06.684Z,0
2018-07-04T02:24:08.041Z,0
2018-07-04T02:25:09.412Z,0
2018-07-04T02:26:10.775Z,0
2018-07-04T02:27:12.135Z,0
2018-07-04T02:28:13.493Z,0
2018-07-04T02:29:14.850Z,0
2018-07-04T02:30:16.226Z,0
2018-07-04T02:31:17.587Z,0
2018-07-04T02:32:18.943Z,0
2018-07-04T02:33:20.312Z,0
2018-07-04T02:34:21.676Z,0
2018-07-04T02:35:23.035Z,0
2018-07-04T02:36:24.395Z,0
2018-07-04T02:37:25.756Z,0
2018-07-04T02:38:27.125Z,0
2018-07-04T02:39:28.479Z,0
2018-07-04T02:40:29.845Z,0
2018-07-04T02:41:31.210Z,0
2018-07-04T02:42:32.561Z,0
2018-07-04T02:43:33.940Z,0
2018-07-04T02:44:35.287Z,0
2018-07-04T02:45:36.645Z,0
2018-07-04T02:46:38.005Z,0
2018-07-04T02:47:39.375Z,0
2018-07-04T02:48:40.746Z,0
2018-07-04T02:49:42.101Z,0
2018-07-04T02:50:43.489Z,0
2018-07-04T02:51:44.827Z,0
2018-07-04T02:52:46.187Z,0
2018-07-04T02:53:47.551Z,0
2018-07-04T02:54:48.926Z,0
2018-07-04T02:55:50.282Z,0
2018-07-04T02:56:51.645Z,0
2018-07-04T02:57:53.017Z,0
2018-07-04T02:58:54.367Z,0
2018-07-04T02:59:55.747Z,0
2018-07-04T03:00:57.116Z,0
2018-07-04T03:01:58.466Z,0
2018-07-04T03:02:59.837Z,0
2018-07-04T03:04:01.197Z,0
2018-07-04T03:05:02.566Z,0
2018-07-04T03:06:03.937Z,0
2018-07-04T03:07:05.300Z,0
2018-07-04T03:08:06.672Z,0
2018-07-04T03:09:08.022Z,0
2018-07-04T03:10:09.385Z,0
2018-07-04T03:11:10.743Z,0
2018-07-04T03:12:12.106Z,5
2018-07-04T03:13:13.467Z,5
2018-07-04T03:14:14.841Z,5
2018-07-04T03:15:16.201Z,5
2018-07-04T03:16:17.566Z,5
2018-07-04T03:17:18.928Z,5
2018-07-04T03:18:20.283Z,5
2018-07-04T03:19:21.642Z,5
2018-07-04T03:20:23.013Z,5
2018-07-04T03:21:24.368Z,11
2018-07-04T03:22:25.737Z,11
2018-07-04T03:23:27.108Z,11
2018-07-04T03:24:28.472Z,11
2018-07-04T03:25:29.842Z,11
2018-07-04T03:26:31.201Z,11
2018-07-04T03:27:32.577Z,11
2018-07-04T03:28:33.942Z,16
2018-07-04T03:29:35.308Z,16
2018-07-04T03:30:36.662Z,16
2018-07-04T03:31:38.034Z,16
2018-07-04T03:32:39.405Z,16
2018-07-04T03:33:40.786Z,22
2018-07-04T03:34:42.153Z,22
2018-07-04T03:35:44.404Z,22
2018-07-04T03:36:45.773Z,22
2018-07-04T03:37:47.142Z,28
2018-07-04T03:38:48.496Z,28
2018-07-04T03:39:49.862Z,28
2018-07-04T03:40:51.218Z,28
2018-07-04T03:41:52.711Z,33
2018-07-04T03:42:54.082Z,33
2018-07-04T03:43:55.453Z,33
2018-07-04T03:44:56.817Z,33
2018-07-04T03:45:58.192Z,39
2018-07-04T03:46:59.558Z,39
2018-07-04T03:48:00.915Z,39
2018-07-04T03:49:02.268Z,45
2018-07-04T03:50:03.647Z,45
2018-07-04T03:51:05.002Z,45
2018-07-04T03:52:06.365Z,50
2018-07-04T03:53:07.744Z,50
2018-07-04T03:54:09.102Z,50
2018-07-04T03:55:10.478Z,56
2018-07-04T03:56:11.843Z,56
2018-07-04T03:57:13.213Z,61
2018-07-04T03:58:14.577Z,61
2018-07-04T03:59:15.943Z,61
2018-07-04T04:00:17.317Z,67
2018-07-04T04:01:18.707Z,67
2018-07-04T04:02:20.068Z,73
2018-07-04T04:03:21.424Z,73
2018-07-04T04:04:22.808Z,73
2018-07-04T04:05:24.183Z,78
2018-07-04T04:06:25.539Z,78
2018-07-04T04:07:26.914Z,84
2018-07-04T04:08:28.274Z,84
2018-07-04T04:09:29.633Z,84
2018-07-04T04:10:31.004Z,90
2018-07-04T04:11:32.374Z,90
2018-07-04T04:12:33.747Z,95
2018-07-04T04:13:35.108Z,95
2018-07-04T04:14:36.473Z,101
2018-07-04T04:15:37.837Z,101
2018-07-04T04:16:39.212Z,106
2018-07-04T04:17:40.582Z,106
2018-07-04T04:18:41.947Z,112
2018-07-04T04:19:43.323Z,112
2018-07-04T04:20:44.679Z,118
2018-07-04T04:21:46.061Z,123
2018-07-04T04:22:47.424Z,123
2018-07-04T04:23:48.800Z,129
2018-07-04T04:24:50.159Z,135
2018-07-04T04:25:51.549Z,135
2018-07-04T04:26:52.914Z,135
2018-07-04T04:27:54.277Z,135
2018-07-04T04:28:55.645Z,140
2018-07-04T04:29:57.013Z,146
2018-07-04T04:30:58.379Z,146
2018-07-04T04:31:59.738Z,151
2018-07-04T04:33:01.098Z,151
2018-07-04T04:34:02.468Z,157
2018-07-04T04:35:03.838Z,157
2018-07-04T04:36:05.207Z,163
2018-07-04T04:37:06.574Z,168
2018-07-04T04:38:07.939Z,168
2018-07-04T04:39:09.313Z,174
2018-07-04T04:40:10.687Z,180
2018-07-04T04:41:12.059Z,180
2018-07-04T04:42:13.414Z,185
2018-07-04T04:43:14.789Z,191
2018-07-04T04:44:16.163Z,196
2018-07-04T04:45:17.534Z,196
2018-07-04T04:46:18.862Z,202
2018-07-04T04:47:20.232Z,208
2018-07-04T04:48:21.609Z,208
2018-07-04T04:49:22.973Z,213
2018-07-04T04:50:24.343Z,219
2018-07-04T04:51:25.708Z,219
2018-07-04T04:52:27.088Z,225
2018-07-04T04:53:28.461Z,230
2018-07-04T04:54:29.829Z,230
2018-07-04T04:55:31.189Z,236
2018-07-04T04:56:32.560Z,241
2018-07-04T04:57:33.940Z,247
2018-07-04T04:58:35.325Z,258
2018-07-04T04:59:36.691Z,258
2018-07-04T05:00:38.044Z,264
2018-07-04T05:01:39.417Z,270
2018-07-04T05:02:40.799Z,270
2018-07-04T05:03:42.159Z,275
2018-07-04T05:04:44.388Z,281
2018-07-04T05:05:45.756Z,286
2018-07-04T05:06:47.134Z,292
2018-07-04T05:07:48.529Z,292
2018-07-04T05:08:49.859Z,298
2018-07-04T05:09:51.237Z,303
2018-07-04T05:10:52.612Z,309
2018-07-04T05:11:54.004Z,309
2018-07-04T05:12:55.362Z,315
2018-07-04T05:13:56.750Z,320
2018-07-04T05:14:58.124Z,326
2018-07-04T05:15:59.499Z,326
2018-07-04T05:17:00.865Z,331
2018-07-04T05:18:02.254Z,337
2018-07-04T05:19:03.617Z,343
2018-07-04T05:20:04.985Z,348
2018-07-04T05:21:06.350Z,354
2018-07-04T05:22:07.722Z,360
2018-07-04T05:23:09.106Z,365
2018-07-04T05:24:10.472Z,371
2018-07-04T05:25:11.854Z,376
2018-07-04T05:26:13.220Z,382
2018-07-04T05:27:14.588Z,382
2018-07-04T05:28:16.004Z,388
2018-07-04T05:29:17.336Z,388
2018-07-04T05:30:18.711Z,393
2018-07-04T05:31:20.076Z,399
2018-07-04T05:32:21.449Z,405
2018-07-04T05:33:22.823Z,405
2018-07-04T05:34:24.204Z,410
2018-07-04T05:35:25.566Z,416
2018-07-04T05:36:26.934Z,421
2018-07-04T05:37:28.325Z,421
2018-07-04T05:38:29.704Z,438
2018-07-04T05:39:31.072Z,506
2018-07-04T05:40:32.491Z,585
2018-07-04T05:41:33.868Z,720
2018-07-04T05:42:35.240Z,776
2018-07-04T05:43:36.611Z,663
2018-07-04T05:44:37.973Z,708
2018-07-04T05:45:39.358Z,691
2018-07-04T05:46:40.763Z,675
2018-07-04T05:47:42.385Z,658
2018-07-04T05:48:43.604Z,641
2018-07-04T05:49:44.974Z,607
2018-07-04T05:50:46.346Z,613
2018-07-04T05:51:47.725Z,528
2018-07-04T05:52:49.093Z,461
2018-07-04T05:53:50.471Z,466
2018-07-04T05:54:51.840Z,461
2018-07-04T05:55:53.199Z,466
2018-07-04T05:56:54.640Z,500
2018-07-04T05:57:56.084Z,646
2018-07-04T05:58:57.453Z,495
2018-07-04T05:59:58.831Z,523
2018-07-04T06:01:00.210Z,562
2018-07-04T06:02:01.571Z,641
2018-07-04T06:03:02.961Z,759
2018-07-04T06:04:04.340Z,967
2018-07-04T06:05:05.709Z,922
2018-07-04T06:06:07.087Z,922
2018-07-04T06:07:08.468Z,714
2018-07-04T06:08:09.835Z,731
2018-07-04T06:09:11.258Z,759
2018-07-04T06:10:12.591Z,781
2018-07-04T06:11:14.790Z,810
2018-07-04T06:12:16.168Z,928
2018-07-04T06:13:17.553Z,1074
2018-07-04T06:14:18.931Z,1192
2018-07-04T06:15:20.295Z,1288
2018-07-04T06:16:21.724Z,1293
2018-07-04T06:17:23.086Z,1321
2018-07-04T06:18:24.421Z,1355
2018-07-04T06:19:25.851Z,1383
2018-07-04T06:20:27.223Z,1400
2018-07-04T06:21:28.619Z,1372
2018-07-04T06:22:29.995Z,1406
2018-07-04T06:23:31.381Z,1440
2018-07-04T06:24:32.755Z,1423
2018-07-04T06:25:34.139Z,1417
2018-07-04T06:26:35.522Z,1423
2018-07-04T06:27:36.895Z,1395
2018-07-04T06:28:38.284Z,1361
2018-07-04T06:29:39.670Z,1192
2018-07-04T06:30:41.049Z,973
2018-07-04T06:31:42.441Z,905
2018-07-04T06:32:43.884Z,838
2018-07-04T06:33:45.339Z,770
2018-07-04T06:34:46.816Z,793
2018-07-04T06:35:48.237Z,770
2018-07-04T06:36:49.625Z,765
2018-07-04T06:37:51.019Z,866
2018-07-04T06:38:52.399Z,945
2018-07-04T06:39:53.771Z,1012
2018-07-04T06:40:55.150Z,1051
2018-07-04T06:41:56.534Z,1018
2018-07-04T06:42:57.915Z,995
2018-07-04T06:43:59.291Z,1023
2018-07-04T06:45:00.666Z,978
2018-07-04T06:46:02.045Z,922
2018-07-04T06:47:03.443Z,894
2018-07-04T06:48:04.826Z,1063
2018-07-04T06:49:06.268Z,1068
2018-07-04T06:50:07.607Z,1012
2018-07-04T06:51:09.011Z,1018
2018-07-04T06:52:10.387Z,1080
2018-07-04T06:53:11.785Z,984
2018-07-04T06:54:13.189Z,928
2018-07-04T06:55:14.567Z,883
2018-07-04T06:56:15.952Z,922
2018-07-04T06:57:17.336Z,967
2018-07-04T06:58:18.752Z,1046
2018-07-04T06:59:20.138Z,1074
2018-07-04T07:00:21.511Z,1366
2018-07-04T07:01:22.904Z,1710
2018-07-04T07:02:24.279Z,1732
2018-07-04T07:03:25.660Z,1597
2018-07-04T07:04:27.031Z,1513
2018-07-04T07:05:28.404Z,1524
2018-07-04T07:06:29.806Z,1558
2018-07-04T07:07:31.192Z,1608
2018-07-04T07:08:32.579Z,1524
2018-07-04T07:09:33.966Z,1473
2018-07-04T07:10:35.342Z,1541
2018-07-04T07:11:36.727Z,1563
2018-07-04T07:12:38.142Z,1625
2018-07-04T07:13:39.530Z,1687
2018-07-04T07:14:40.907Z,1608
2018-07-04T07:15:42.295Z,1580
2018-07-04T07:16:44.186Z,1563
2018-07-04T07:17:45.557Z,1507
2018-07-04T07:18:46.935Z,1485
2018-07-04T07:19:48.327Z,1350
2018-07-04T07:20:49.717Z,1350
2018-07-04T07:21:51.101Z,1321
2018-07-04T07:22:52.471Z,1350
2018-07-04T07:23:53.855Z,1209
2018-07-04T07:24:55.232Z,1293
2018-07-04T07:25:56.632Z,1248
2018-07-04T07:26:58.032Z,1130
2018-07-04T07:27:59.408Z,1147
2018-07-04T07:29:00.796Z,1141
2018-07-04T07:30:02.175Z,1192
2018-07-04T07:31:03.555Z,1158
2018-07-04T07:32:04.948Z,1170
2018-07-04T07:33:06.310Z,1203
2018-07-04T07:34:07.754Z,1209
2018-07-04T07:35:09.047Z,1226
2018-07-04T07:36:10.427Z,1243
2018-07-04T07:37:11.797Z,1203
2018-07-04T07:38:13.185Z,1209
2018-07-04T07:39:14.570Z,1243
2018-07-04T07:40:15.946Z,1248
2018-07-04T07:41:17.336Z,1248
2018-07-04T07:42:18.866Z,1260
2018-07-04T07:43:20.227Z,1265
2018-07-04T07:44:21.617Z,1260
2018-07-04T07:45:23.006Z,1276
2018-07-04T07:46:24.382Z,1378
2018-07-04T07:47:25.767Z,1406
2018-07-04T07:48:27.187Z,1417
2018-07-04T07:49:28.573Z,1395
2018-07-04T07:50:29.952Z,1355
2018-07-04T07:51:31.380Z,1440
2018-07-04T07:52:32.763Z,1389
2018-07-04T07:53:34.155Z,1333
2018-07-04T07:54:35.538Z,1333
2018-07-04T07:55:36.928Z,1383
2018-07-04T07:56:38.310Z,1434
2018-07-04T07:57:39.686Z,1378
2018-07-04T07:58:41.072Z,1473
2018-07-04T07:59:42.455Z,1445
2018-07-04T08:00:43.871Z,1411
2018-07-04T08:01:45.287Z,1428
2018-07-04T08:02:46.638Z,1462
2018-07-04T08:03:48.027Z,1468
2018-07-04T08:04:49.400Z,1451
2018-07-04T08:05:50.787Z,1445
2018-07-04T08:06:52.157Z,1468
2018-07-04T08:07:53.536Z,1496
2018-07-04T08:08:54.912Z,1490
2018-07-04T08:09:56.303Z,1513
2018-07-04T08:10:57.682Z,1586
2018-07-04T08:11:59.067Z,1620
2018-07-04T08:13:00.451Z,1620
2018-07-04T08:14:01.836Z,1670
2018-07-04T08:15:03.226Z,1524
2018-07-04T08:16:04.611Z,1434
2018-07-04T08:17:05.991Z,1445
2018-07-04T08:18:07.371Z,1608
2018-07-04T08:19:08.765Z,1524
2018-07-04T08:20:10.151Z,1417
2018-07-04T08:21:11.537Z,1383
2018-07-04T08:22:12.915Z,1440
2018-07-04T08:23:14.301Z,1462
2018-07-04T08:24:15.838Z,1468
2018-07-04T08:25:17.211Z,1440
2018-07-04T08:26:18.612Z,1372
2018-07-04T08:27:20.007Z,1389
2018-07-04T08:28:21.388Z,1383
2018-07-04T08:29:22.773Z,1406
2018-07-04T08:30:24.153Z,1338
2018-07-04T08:31:25.537Z,1260
2018-07-04T08:32:26.917Z,1215
2018-07-04T08:33:28.348Z,1254
2018-07-04T08:34:29.716Z,1186
2018-07-04T08:35:31.115Z,1209
2018-07-04T08:36:32.501Z,1293
2018-07-04T08:37:33.936Z,1496
2018-07-04T08:38:35.312Z,1755
2018-07-04T08:39:36.695Z,1406
2018-07-04T08:40:38.065Z,1383
2018-07-04T08:41:39.446Z,1299
2018-07-04T08:42:40.832Z,1355
2018-07-04T08:43:42.223Z,1276
2018-07-04T08:44:43.647Z,1276
2018-07-04T08:45:45.031Z,1608
2018-07-04T08:46:46.408Z,1451
2018-07-04T08:47:47.784Z,1513
2018-07-04T08:48:49.172Z,1350
2018-07-04T08:49:50.587Z,1288
2018-07-04T08:50:52.055Z,1299
2018-07-04T08:51:53.403Z,1338
2018-07-04T08:52:54.851Z,1456
2018-07-04T08:53:56.184Z,1440
2018-07-04T08:54:57.571Z,1479
2018-07-04T08:55:58.963Z,1597
2018-07-04T08:57:00.347Z,1541
2018-07-04T08:58:01.736Z,1490
2018-07-04T08:59:03.117Z,1513
2018-07-04T09:00:04.498Z,1546
2018-07-04T09:01:05.887Z,1608
2018-07-04T09:02:07.279Z,1822
2018-07-04T09:03:08.653Z,1811
2018-07-04T09:04:10.041Z,1985
2018-07-04T09:05:11.424Z,2160
2018-07-04T09:06:12.804Z,2300
2018-07-04T09:07:14.232Z,2801
2018-07-04T09:08:15.618Z,2986
2018-07-04T09:09:16.992Z,2700
2018-07-04T09:10:18.369Z,2829
2018-07-04T09:11:19.762Z,2733
2018-07-04T09:12:21.154Z,3015
2018-07-04T09:13:22.538Z,2801
2018-07-04T09:14:23.939Z,3037
2018-07-04T09:15:25.327Z,3183
2018-07-04T09:16:26.708Z,3166
2018-07-04T09:17:28.103Z,3082
2018-07-04T09:18:29.494Z,3031
2018-07-04T09:19:30.942Z,2874
2018-07-04T09:20:32.333Z,2514
2018-07-04T09:21:33.734Z,2430
2018-07-04T09:22:35.116Z,2733
2018-07-04T09:23:36.507Z,2705
2018-07-04T09:24:37.995Z,2328
2018-07-04T09:25:39.270Z,2013
2018-07-04T09:26:40.657Z,1946
2018-07-04T09:27:42.217Z,2171
2018-07-04T09:28:43.633Z,3155
2018-07-04T09:29:44.995Z,3178
2018-07-04T09:30:46.378Z,3105
2018-07-04T09:31:47.773Z,3105
2018-07-04T09:32:49.155Z,3110
2018-07-04T09:33:50.557Z,3099
2018-07-04T09:34:51.937Z,3138
2018-07-04T09:35:53.332Z,3161
2018-07-04T09:36:54.808Z,3082
2018-07-04T09:37:56.184Z,3009
2018-07-04T09:38:57.576Z,2981
2018-07-04T09:39:58.964Z,2694
2018-07-04T09:41:00.352Z,1850
2018-07-04T09:42:01.794Z,2418
2018-07-04T09:43:03.168Z,1653
2018-07-04T09:44:04.574Z,1254
2018-07-04T09:45:05.956Z,1203
2018-07-04T09:46:07.345Z,1158
2018-07-04T09:47:08.730Z,1141
2018-07-04T09:48:10.134Z,1153
2018-07-04T09:49:11.528Z,1215
2018-07-04T09:50:12.909Z,1704
2018-07-04T09:51:14.309Z,2323
2018-07-04T09:52:15.693Z,2711
2018-07-04T09:53:17.079Z,2705
2018-07-04T09:54:18.462Z,2638
2018-07-04T09:55:20.580Z,2778
2018-07-04T09:56:22.032Z,2711
2018-07-04T09:57:23.518Z,2739
2018-07-04T09:58:24.975Z,2716
2018-07-04T09:59:26.370Z,2863
2018-07-04T10:00:27.760Z,2806
2018-07-04T10:01:29.147Z,2913
2018-07-04T10:02:30.525Z,2840
2018-07-04T10:03:31.918Z,2728
2018-07-04T10:04:33.301Z,2649
2018-07-04T10:05:34.720Z,2863
2018-07-04T10:06:36.064Z,2998
2018-07-04T10:07:37.519Z,3003
2018-07-04T10:08:38.898Z,2784
2018-07-04T10:09:40.319Z,2784
2018-07-04T10:10:41.772Z,2711
2018-07-04T10:11:43.153Z,2666
2018-07-04T10:12:44.641Z,2756
2018-07-04T10:13:46.132Z,2778
2018-07-04T10:14:47.538Z,2896
2018-07-04T10:15:48.933Z,3206
2018-07-04T10:16:50.340Z,3262
2018-07-04T10:17:51.764Z,3155
2018-07-04T10:18:53.159Z,3144
2018-07-04T10:19:54.557Z,3318
2018-07-04T10:20:55.984Z,3487
2018-07-04T10:21:57.382Z,3431
2018-07-04T10:22:58.778Z,3391
2018-07-04T10:24:00.162Z,3189
2018-07-04T10:25:01.539Z,3256
2018-07-04T10:26:02.942Z,3285
2018-07-04T10:27:04.335Z,3178
2018-07-04T10:28:05.718Z,3133
2018-07-04T10:29:07.105Z,3037
2018-07-04T10:30:08.505Z,2992
2018-07-04T10:31:09.905Z,2902
2018-07-04T10:32:11.294Z,2964
2018-07-04T10:33:12.683Z,2936
2018-07-04T10:34:14.786Z,2981
2018-07-04T10:35:16.137Z,2919
2018-07-04T10:36:17.534Z,3015
2018-07-04T10:37:18.928Z,3223
2018-07-04T10:38:20.338Z,3150
2018-07-04T10:39:21.730Z,2902
2018-07-04T10:40:23.120Z,2947
2018-07-04T10:41:24.516Z,3099
2018-07-04T10:42:25.898Z,2801
2018-07-04T10:43:27.283Z,2745
2018-07-04T10:44:28.669Z,2919
2018-07-04T10:45:30.068Z,2964
2018-07-04T10:46:31.463Z,3150
2018-07-04T10:47:32.857Z,3178
2018-07-04T10:48:34.268Z,3285
2018-07-04T10:49:35.659Z,3330
2018-07-04T10:50:37.061Z,3116
2018-07-04T10:51:38.464Z,3138
2018-07-04T10:52:39.844Z,3065
2018-07-04T10:53:41.250Z,3273
2018-07-04T10:54:42.633Z,3566
2018-07-04T10:55:44.890Z,3673
2018-07-04T10:56:46.304Z,3459
2018-07-04T10:57:47.698Z,3459
2018-07-04T10:58:49.079Z,3251
2018-07-04T10:59:50.480Z,3352
2018-07-04T11:00:51.880Z,3391
2018-07-04T11:01:53.284Z,3301
2018-07-04T11:02:54.679Z,3127
2018-07-04T11:03:56.078Z,3245
2018-07-04T11:04:57.468Z,3240
2018-07-04T11:05:58.875Z,3240
2018-07-04T11:07:00.273Z,3386
2018-07-04T11:08:01.797Z,3285
2018-07-04T11:09:03.184Z,3470
2018-07-04T11:10:04.603Z,3408
2018-07-04T11:11:06.093Z,3324
2018-07-04T11:12:07.484Z,3200
2018-07-04T11:13:08.874Z,3363
2018-07-04T11:14:10.283Z,3262
2018-07-04T11:15:11.683Z,3532
2018-07-04T11:16:13.070Z,3571
2018-07-04T11:17:14.490Z,3645
2018-07-04T11:18:15.970Z,3712
2018-07-04T11:19:17.425Z,3712
2018-07-04T11:20:18.845Z,3701
2018-07-04T11:21:20.240Z,3712
2018-07-04T11:22:21.634Z,3588
2018-07-04T11:23:23.040Z,3470
2018-07-04T11:24:24.435Z,3498
2018-07-04T11:25:25.835Z,3633
2018-07-04T11:26:27.231Z,3600
2018-07-04T11:27:28.703Z,3481
2018-07-04T11:28:30.153Z,3566
2018-07-04T11:29:31.509Z,3746
2018-07-04T11:30:33.872Z,3740
2018-07-04T11:31:35.265Z,3588
2018-07-04T11:32:36.658Z,3538
2018-07-04T11:33:38.060Z,3667
2018-07-04T11:34:39.459Z,3408
2018-07-04T11:35:40.864Z,3166
2018-07-04T11:36:42.259Z,3262
2018-07-04T11:37:44.476Z,2975
2018-07-04T11:38:45.894Z,3133
2018-07-04T11:39:47.325Z,3403
2018-07-04T11:40:48.741Z,3729
2018-07-04T11:41:50.128Z,3729
2018-07-04T11:42:51.526Z,3690
2018-07-04T11:43:52.923Z,3881
2018-07-04T11:44:54.334Z,3841
2018-07-04T11:45:55.747Z,3757
2018-07-04T11:46:57.145Z,3667
2018-07-04T11:47:58.536Z,3549
2018-07-04T11:48:59.926Z,3571
2018-07-04T11:50:01.331Z,3436
2018-07-04T11:51:02.730Z,3493
2018-07-04T11:52:04.129Z,3470
2018-07-04T11:53:05.573Z,3138
2018-07-04T11:54:06.918Z,2683
2018-07-04T11:55:08.297Z,2390
2018-07-04T11:56:09.701Z,2148
2018-07-04T11:57:11.165Z,2171
2018-07-04T11:58:12.485Z,2311
2018-07-04T11:59:14.674Z,1068
2018-07-04T12:00:16.075Z,928
2018-07-04T12:01:17.465Z,866
2018-07-04T12:02:18.855Z,838
2018-07-04T12:03:20.234Z,866
2018-07-04T12:04:21.640Z,990
2018-07-04T12:05:23.055Z,1828
2018-07-04T12:06:24.424Z,1029
2018-07-04T12:07:25.814Z,961
2018-07-04T12:08:27.197Z,905
2018-07-04T12:09:28.614Z,849
2018-07-04T12:10:30.000Z,787
2018-07-04T12:11:31.428Z,736
2018-07-04T12:12:32.798Z,691
2018-07-04T12:13:34.180Z,641
2018-07-04T12:14:35.579Z,596
2018-07-04T12:15:36.964Z,545
2018-07-04T12:16:38.348Z,495
2018-07-04T12:17:39.735Z,444
2018-07-04T12:18:41.128Z,399
2018-07-04T12:19:42.504Z,354
2018-07-04T12:20:43.914Z,326
2018-07-04T12:21:45.312Z,303
2018-07-04T12:22:46.698Z,275
2018-07-04T12:23:48.074Z,247
2018-07-04T12:24:49.454Z,225
2018-07-04T12:25:50.857Z,196
2018-07-04T12:26:52.272Z,174
2018-07-04T12:27:53.630Z,151
2018-07-04T12:28:55.015Z,146
2018-07-04T12:29:56.449Z,129
2018-07-04T12:30:57.834Z,118
2018-07-04T12:31:59.265Z,112
2018-07-04T12:33:00.675Z,101
2018-07-04T12:34:02.076Z,95
2018-07-04T12:35:03.441Z,84
2018-07-04T12:36:04.829Z,78
2018-07-04T12:37:06.214Z,78
2018-07-04T12:38:07.583Z,73
2018-07-04T12:39:08.947Z,73
2018-07-04T12:40:10.331Z,67
2018-07-04T12:41:11.714Z,67
2018-07-04T12:42:13.100Z,67
2018-07-04T12:43:14.524Z,73
2018-07-04T12:44:15.921Z,90
2018-07-04T12:45:17.296Z,106
2018-07-04T12:46:18.676Z,112
2018-07-04T12:47:20.068Z,118
2018-07-04T12:48:21.425Z,123
2018-07-04T12:49:23.369Z,123
2018-07-04T12:50:24.879Z,135
2018-07-04T12:51:26.266Z,135
2018-07-04T12:52:27.649Z,129
2018-07-04T12:53:29.006Z,118
2018-07-04T12:54:30.451Z,106
2018-07-04T12:55:31.785Z,101
2018-07-04T12:56:33.174Z,101
2018-07-04T12:57:34.546Z,106
2018-07-04T12:58:35.941Z,118
2018-07-04T12:59:37.337Z,129
2018-07-04T13:00:38.763Z,140
2018-07-04T13:01:40.155Z,146
2018-07-04T13:02:41.535Z,157
2018-07-04T13:03:42.926Z,163
2018-07-04T13:04:44.324Z,168
2018-07-04T13:05:45.697Z,174
2018-07-04T13:06:47.068Z,180
2018-07-04T13:07:48.440Z,174
2018-07-04T13:08:49.819Z,180
2018-07-04T13:09:51.205Z,191
2018-07-04T13:10:53.723Z,202
2018-07-04T13:11:55.100Z,213
2018-07-04T13:12:56.581Z,219
2018-07-04T13:13:58.000Z,219
2018-07-04T13:14:59.356Z,219
2018-07-04T13:16:00.725Z,213
2018-07-04T13:17:02.096Z,213
2018-07-04T13:18:03.491Z,208
2018-07-04T13:19:04.873Z,208
2018-07-04T13:20:06.249Z,208
2018-07-04T13:21:07.786Z,219
2018-07-04T13:22:09.192Z,219
2018-07-04T13:23:10.547Z,225
2018-07-04T13:24:12.031Z,230
2018-07-04T13:25:13.405Z,236
2018-07-04T13:26:14.783Z,247
2018-07-04T13:27:16.160Z,253
2018-07-04T13:28:17.782Z,264
2018-07-04T13:29:19.172Z,275
2018-07-04T13:30:21.531Z,286
2018-07-04T13:31:22.907Z,303
2018-07-04T13:32:24.315Z,320
2018-07-04T13:33:25.620Z,331
2018-07-04T13:34:26.986Z,343
2018-07-04T13:35:28.372Z,360
2018-07-04T13:36:29.751Z,382
2018-07-04T13:37:31.177Z,388
2018-07-04T13:38:32.578Z,405
2018-07-04T13:39:33.936Z,416
2018-07-04T13:40:35.327Z,438
2018-07-04T13:41:36.706Z,455
2018-07-04T13:42:38.088Z,478
2018-07-04T13:43:39.473Z,495
2018-07-04T13:44:40.847Z,517
2018-07-04T13:45:42.232Z,540
2018-07-04T13:46:44.386Z,556
2018-07-04T13:47:45.030Z,573
2018-07-04T13:48:46.410Z,590
2018-07-04T13:49:47.790Z,607
2018-07-04T13:50:49.147Z,630
2018-07-04T13:51:50.681Z,646
2018-07-04T13:52:52.046Z,652
2018-07-04T13:53:53.422Z,669
2018-07-04T13:54:54.844Z,691
2018-07-04T13:55:56.227Z,708
2018-07-04T13:56:57.611Z,725
2018-07-04T13:57:59.227Z,742
2018-07-04T13:59:02.066Z,770
2018-07-04T14:00:03.457Z,793
2018-07-04T14:01:04.830Z,815
2018-07-04T14:02:06.236Z,855
2018-07-04T14:03:07.645Z,883
2018-07-04T14:04:09.058Z,911
2018-07-04T14:05:10.361Z,939
2018-07-04T14:06:11.747Z,973
2018-07-04T14:07:13.131Z,990
2018-07-04T14:08:14.559Z,1023
2018-07-04T14:09:15.933Z,1063
2018-07-04T14:10:17.334Z,1091